Time;durP1;ratioP1;P1;durP2;ratioP2;P2;SDS_P1;SDS_P2;PMS_P1;PMS_P2;Temp;Humidity;BMP_temperature;BMP_pressure;BME280_temperature;BME280_humidity;BME280_pressure;Samples;Min_cycle;Max_cycle;Signal;HPM_P1;HPM_P2
2022/07/20 00:01:09;;;;;;;2.67;1.77;;;14.90;57.50;;;;;;5029983;28;20231;-46
2022/07/20 00:03:41;;;;;;;3.58;2.00;;;14.90;57.60;;;;;;5031219;28;20196;-51
2022/07/20 00:06:12;;;;;;;2.42;1.50;;;14.90;57.60;;;;;;5031324;28;20644;-46
2022/07/20 00:11:31;;;;;;;1.85;1.30;;;14.90;57.50;;;;;;5031364;28;20218;-50
2022/07/20 00:14:03;;;;;;;1.80;1.55;;;14.90;57.40;;;;;;5030609;28;20207;-58
2022/07/20 00:16:36;;;;;;;1.85;1.52;;;14.90;57.40;;;;;;5030593;28;20211;-50
2022/07/20 00:19:07;;;;;;;2.95;1.67;;;14.90;58.00;;;;;;5031067;28;20558;-47
2022/07/20 00:21:37;;;;;;;2.20;1.85;;;15.00;57.50;;;;;;5030618;28;20231;-55
2022/07/20 00:24:09;;;;;;;2.38;1.70;;;15.00;57.50;;;;;;5031119;28;20197;-53
2022/07/20 00:26:41;;;;;;;3.17;1.95;;;14.90;57.50;;;;;;5031487;28;20543;-48
2022/07/20 00:29:12;;;;;;;2.97;1.42;;;15.00;57.60;;;;;;5030711;28;20590;-49
2022/07/20 00:31:43;;;;;;;2.38;1.80;;;15.00;57.60;;;;;;5030797;28;20303;-56
2022/07/20 00:34:13;;;;;;;2.72;1.65;;;15.00;57.60;;;;;;5030053;28;20224;-54
2022/07/20 00:36:44;;;;;;;2.72;1.48;;;15.00;57.60;;;;;;5030330;28;20675;-55
2022/07/20 00:39:15;;;;;;;2.90;1.70;;;15.00;57.50;;;;;;5030075;28;20207;-56
2022/07/20 00:41:47;;;;;;;2.47;1.60;;;15.00;57.50;;;;;;5031058;28;20723;-49
2022/07/20 00:44:18;;;;;;;2.67;1.65;;;15.00;57.50;;;;;;5030305;28;20317;-50
2022/07/20 00:47:29;;;;;;;1.88;1.45;;;15.00;57.50;;;;;;5030532;28;20279;-53
2022/07/20 00:50:00;;;;;;;2.13;1.38;;;15.00;57.60;;;;;;5030096;28;20216;-46
2022/07/20 00:52:31;;;;;;;1.80;1.35;;;15.10;57.60;;;;;;5030289;28;20192;-44
2022/07/20 00:55:01;;;;;;;2.45;1.50;;;15.10;57.70;;;;;;5030098;28;20474;-52
2022/07/20 00:57:35;;;;;;;2.97;1.92;;;15.10;57.70;;;;;;5031063;28;20207;-50
2022/07/20 01:00:08;;;;;;;3.08;1.90;;;15.10;57.70;;;;;;5030565;28;20223;-48
2022/07/20 01:02:38;;;;;;;2.42;1.60;;;15.10;57.70;;;;;;5029638;28;20200;-46
2022/07/20 01:05:13;;;;;;;3.58;1.90;;;15.10;58.30;;;;;;5029725;28;20192;-45
2022/07/20 01:07:46;;;;;;;1.70;1.60;;;15.10;57.70;;;;;;5029200;28;20200;-48
2022/07/20 01:10:19;;;;;;;2.03;1.58;;;15.10;57.70;;;;;;5029853;28;20212;-50
2022/07/20 01:12:52;;;;;;;1.95;1.50;;;15.10;57.70;;;;;;5029895;28;20196;-53
2022/07/20 01:15:23;;;;;;;1.92;1.50;;;15.10;57.60;;;;;;5029880;28;20223;-49
2022/07/20 01:17:53;;;;;;;2.83;1.50;;;15.10;57.60;;;;;;5030746;28;20566;-48
2022/07/20 01:20:28;;;;;;;2.13;1.55;;;15.10;57.60;;;;;;5030579;28;20216;-47
2022/07/20 01:23:00;;;;;;;2.22;1.40;;;15.20;57.70;;;;;;5029835;28;20206;-46
2022/07/20 01:25:31;;;;;;;2.10;1.77;;;15.20;57.70;;;;;;5029593;28;20228;-47
2022/07/20 01:28:02;;;;;;;2.33;1.70;;;15.20;57.70;;;;;;5021008;28;20200;-50
2022/07/20 01:30:32;;;;;;;2.50;1.45;;;15.20;57.80;;;;;;5010416;28;20217;-48
2022/07/20 01:33:03;;;;;;;2.70;1.40;;;15.20;57.80;;;;;;5010067;28;20564;-47
2022/07/20 01:35:34;;;;;;;2.13;1.60;;;15.20;57.90;;;;;;5009976;28;20224;-49
2022/07/20 01:38:07;;;;;;;3.00;1.60;;;15.20;57.90;;;;;;5010701;28;20201;-52
2022/07/20 01:40:37;;;;;;;3.22;1.48;;;15.20;57.90;;;;;;5012623;28;20240;-47
2022/07/20 01:43:08;;;;;;;1.70;1.20;;;15.20;57.80;;;;;;5015467;28;20211;-50
2022/07/20 01:45:39;;;;;;;1.75;1.25;;;15.30;57.80;;;;;;5029151;28;20215;-49
2022/07/20 01:48:10;;;;;;;1.80;1.38;;;15.30;57.80;;;;;;5029443;28;20192;-55
2022/07/20 01:50:41;;;;;;;3.20;1.60;;;15.30;57.80;;;;;;5030951;28;20220;-52
2022/07/20 01:53:14;;;;;;;2.28;1.58;;;15.30;57.80;;;;;;5033638;28;20199;-46
2022/07/20 01:55:44;;;;;;;1.77;1.33;;;15.30;57.80;;;;;;5032339;28;20232;-47
2022/07/20 01:58:15;;;;;;;2.65;1.48;;;15.30;57.90;;;;;;5033797;28;20196;-47
2022/07/20 02:00:46;;;;;;;1.45;1.35;;;15.30;57.90;;;;;;5033320;28;20227;-46
2022/07/20 02:03:17;;;;;;;1.63;1.30;;;15.30;57.90;;;;;;5032508;28;20196;-50
2022/07/20 02:05:48;;;;;;;1.40;1.30;;;15.30;57.90;;;;;;5033579;28;20211;-46
2022/07/20 02:08:24;;;;;;;1.60;1.30;;;15.30;57.90;;;;;;5033133;28;20210;-47
2022/07/20 02:10:55;;;;;;;1.88;1.65;;;15.40;57.90;;;;;;5032547;28;20219;-46
2022/07/20 02:13:26;;;;;;;2.15;1.45;;;15.40;57.80;;;;;;5033708;28;20200;-49
2022/07/20 02:18:43;;;;;;;2.28;1.38;;;15.40;57.90;;;;;;5032620;28;20223;-54
2022/07/20 02:21:14;;;;;;;1.50;1.40;;;15.40;57.90;;;;;;5033354;28;20227;-49
2022/07/20 02:23:47;;;;;;;2.45;1.35;;;15.40;57.90;;;;;;5032878;28;20211;-52
2022/07/20 02:26:18;;;;;;;3.13;1.65;;;15.40;57.90;;;;;;5032569;28;20196;-48
2022/07/20 02:28:49;;;;;;;1.55;1.25;;;15.40;57.90;;;;;;5033202;28;20668;-45
2022/07/20 02:31:20;;;;;;;2.53;1.42;;;15.40;57.90;;;;;;5033080;28;20212;-46
2022/07/20 02:33:51;;;;;;;1.85;1.35;;;15.40;57.90;;;;;;5018615;28;20254;-51
2022/07/20 02:36:22;;;;;;;2.45;1.30;;;15.40;58.00;;;;;;5014317;28;20239;-50
2022/07/20 02:38:55;;;;;;;1.98;1.42;;;15.50;58.00;;;;;;5019623;28;20200;-47
2022/07/20 02:41:25;;;;;;;3.88;1.50;;;15.40;58.00;;;;;;5033100;28;20696;-47
2022/07/20 02:43:56;;;;;;;2.05;1.50;;;15.40;58.00;;;;;;5032442;28;20204;-46
2022/07/20 02:46:27;;;;;;;1.52;1.40;;;15.50;58.00;;;;;;5032205;28;20203;-50
2022/07/20 02:48:58;;;;;;;1.48;1.38;;;15.50;58.00;;;;;;5032679;28;20200;-53
2022/07/20 02:51:28;;;;;;;1.77;1.30;;;15.50;57.90;;;;;;5032179;28;20591;-51
2022/07/20 02:54:01;;;;;;;2.50;1.45;;;15.50;57.90;;;;;;5032376;28;20192;-52
2022/07/20 02:56:31;;;;;;;1.50;1.33;;;15.50;57.90;;;;;;5030850;28;20224;-53
2022/07/20 02:59:02;;;;;;;1.60;1.40;;;15.50;57.90;;;;;;5031597;28;20215;-50
2022/07/20 03:01:33;;;;;;;1.50;1.10;;;15.50;57.90;;;;;;5031031;28;20220;-47
2022/07/20 03:04:03;;;;;;;3.10;1.48;;;15.50;58.10;;;;;;5031563;28;20219;-45
2022/07/20 03:06:34;;;;;;;3.42;1.40;;;15.50;58.20;;;;;;5032605;28;20195;-49
2022/07/20 03:09:07;;;;;;;2.35;1.30;;;15.50;58.30;;;;;;5032205;28;20570;-46
2022/07/20 03:11:37;;;;;;;1.75;1.15;;;15.50;58.40;;;;;;5031687;28;20220;-48
2022/07/20 03:14:08;;;;;;;1.70;1.42;;;15.60;58.50;;;;;;5032141;28;20200;-45
2022/07/20 03:16:39;;;;;;;1.42;1.20;;;15.60;58.40;;;;;;5031304;28;20315;-45
2022/07/20 03:19:10;;;;;;;1.33;1.20;;;15.60;58.30;;;;;;5031616;28;20192;-48
2022/07/20 03:21:40;;;;;;;1.63;1.30;;;15.60;58.30;;;;;;5030839;28;20250;-54
2022/07/20 03:24:13;;;;;;;1.63;1.25;;;15.60;58.30;;;;;;5030475;28;20192;-54
2022/07/20 03:26:44;;;;;;;1.30;1.20;;;15.60;58.30;;;;;;5030653;28;20196;-48
2022/07/20 03:29:14;;;;;;;1.63;1.33;;;15.60;58.20;;;;;;5026367;28;20204;-49
2022/07/20 03:31:45;;;;;;;3.33;1.42;;;15.60;58.20;;;;;;5031720;28;20307;-48
2022/07/20 03:34:16;;;;;;;2.50;1.40;;;15.60;58.20;;;;;;5030491;28;20562;-49
2022/07/20 03:36:48;;;;;;;2.13;1.50;;;15.60;58.30;;;;;;5016303;28;20228;-46
2022/07/20 03:39:21;;;;;;;1.77;1.45;;;15.60;58.30;;;;;;5032266;28;20204;-49
2022/07/20 03:41:51;;;;;;;1.55;1.23;;;15.60;58.30;;;;;;5030886;28;20196;-47
2022/07/20 03:44:22;;;;;;;1.35;1.25;;;15.60;58.30;;;;;;5031396;28;20219;-53
2022/07/20 03:46:53;;;;;;;1.40;1.30;;;15.60;58.30;;;;;;5031090;28;20200;-56
2022/07/20 03:49:24;;;;;;;2.25;1.45;;;15.60;58.20;;;;;;5031799;28;20228;-49
2022/07/20 03:51:54;;;;;;;2.38;1.50;;;15.60;58.20;;;;;;5031184;28;20208;-49
2022/07/20 03:54:27;;;;;;;2.45;1.73;;;15.60;58.20;;;;;;5031394;28;20193;-46
2022/07/20 03:56:57;;;;;;;2.20;1.48;;;15.60;58.20;;;;;;5031612;28;20608;-46
2022/07/20 03:59:28;;;;;;;2.13;1.75;;;15.60;58.10;;;;;;5030954;28;20196;-52
2022/07/20 04:01:59;;;;;;;2.42;1.60;;;15.60;58.20;;;;;;5031374;28;20229;-50
2022/07/20 04:04:29;;;;;;;1.67;1.55;;;15.60;58.20;;;;;;5030560;28;20196;-45
2022/07/20 04:07:00;;;;;;;2.22;1.70;;;15.60;58.20;;;;;;5031181;28;20196;-55
2022/07/20 04:09:48;;;;;;;3.25;1.60;;;15.60;58.20;;;;;;5030686;28;20664;-48
2022/07/20 04:12:20;;;;;;;2.65;2.22;;;15.60;58.20;;;;;;5030541;28;20243;-51
2022/07/20 04:14:51;;;;;;;1.85;1.75;;;15.50;58.10;;;;;;5029890;28;20199;-54
2022/07/20 04:17:23;;;;;;;2.50;2.10;;;15.60;58.20;;;;;;5031104;28;20258;-57
2022/07/20 04:19:54;;;;;;;2.33;2.13;;;15.60;58.70;;;;;;5010929;28;20221;-46
2022/07/20 04:22:25;;;;;;;3.30;2.28;;;15.50;58.10;;;;;;5027746;28;20203;-51
2022/07/20 04:24:57;;;;;;;2.30;2.00;;;15.50;58.10;;;;;;5030834;28;20196;-52
2022/07/20 04:27:28;;;;;;;3.13;2.60;;;15.60;58.20;;;;;;5031032;28;20203;-56
2022/07/20 04:29:59;;;;;;;3.78;2.88;;;15.60;58.20;;;;;;5030915;28;20242;-49
2022/07/20 04:32:29;;;;;;;3.20;2.45;;;15.60;58.20;;;;;;5031125;28;20207;-50
2022/07/20 04:35:00;;;;;;;3.03;2.60;;;15.60;58.20;;;;;;5031377;28;20196;-47
2022/07/20 04:37:31;;;;;;;3.08;2.70;;;15.60;58.20;;;;;;5030553;28;20242;-47
2022/07/20 04:40:03;;;;;;;3.08;2.67;;;15.60;58.20;;;;;;5029874;28;20228;-49
2022/07/20 04:42:35;;;;;;;3.80;3.10;;;15.60;58.20;;;;;;5030158;28;20202;-59
2022/07/20 04:45:06;;;;;;;3.10;2.67;;;15.50;58.20;;;;;;5030147;28;20671;-52
2022/07/20 04:47:36;;;;;;;3.30;2.95;;;15.50;58.20;;;;;;5028956;28;20199;-45
2022/07/20 04:50:08;;;;;;;2.55;2.35;;;15.50;58.20;;;;;;5029047;28;21434;-46
2022/07/20 04:52:38;;;;;;;2.83;2.60;;;15.50;58.20;;;;;;5029553;28;20207;-46
2022/07/20 04:55:12;;;;;;;3.08;2.78;;;15.50;58.20;;;;;;5029528;28;20200;-49
2022/07/20 04:57:42;;;;;;;3.08;2.78;;;15.50;58.20;;;;;;5020304;28;20200;-51
2022/07/20 05:00:14;;;;;;;3.90;2.88;;;15.50;58.20;;;;;;5029621;28;20216;-55
2022/07/20 05:02:44;;;;;;;3.63;2.75;;;15.50;58.20;;;;;;5030188;28;20556;-53
2022/07/20 05:05:15;;;;;;;3.47;3.00;;;15.50;58.10;;;;;;5029893;28;20203;-49
2022/07/20 05:07:46;;;;;;;3.45;2.97;;;15.50;58.20;;;;;;5030692;28;20196;-49
2022/07/20 05:10:18;;;;;;;3.45;3.00;;;15.50;58.20;;;;;;5030950;28;20212;-50
2022/07/20 05:12:49;;;;;;;3.72;2.70;;;15.50;58.20;;;;;;5030865;28;20212;-47
2022/07/20 05:15:23;;;;;;;2.92;2.63;;;15.50;58.20;;;;;;5014542;28;20197;-50
2022/07/20 05:17:53;;;;;;;3.80;2.95;;;15.50;58.20;;;;;;5010813;28;20205;-47
2022/07/20 05:20:25;;;;;;;3.22;2.58;;;15.50;58.20;;;;;;5021309;28;20220;-46
2022/07/20 05:22:55;;;;;;;3.00;2.72;;;15.50;58.20;;;;;;5030423;28;20207;-47
2022/07/20 05:25:28;;;;;;;3.53;3.00;;;15.50;58.30;;;;;;5031033;28;20197;-51
2022/07/20 05:27:59;;;;;;;3.72;2.90;;;15.50;58.60;;;;;;5033650;28;20203;-46
2022/07/20 05:30:29;;;;;;;3.63;2.85;;;15.50;58.70;;;;;;5033564;28;20576;-51
2022/07/20 05:33:00;;;;;;;7.53;3.58;;;15.60;58.80;;;;;;5016755;28;20208;-50
2022/07/20 05:35:31;;;;;;;3.38;3.05;;;15.60;58.80;;;;;;5013775;28;20212;-49
2022/07/20 05:38:02;;;;;;;4.78;3.20;;;15.60;58.80;;;;;;5014494;28;20208;-54
2022/07/20 05:40:34;;;;;;;3.72;3.00;;;15.60;58.80;;;;;;5014208;28;20217;-45
2022/07/20 05:43:05;;;;;;;3.45;3.13;;;15.60;58.70;;;;;;5031107;28;20204;-47
2022/07/20 05:45:36;;;;;;;4.55;2.72;;;15.60;58.70;;;;;;5029947;28;20995;-48
2022/07/20 05:48:10;;;;;;;4.32;3.10;;;15.60;58.70;;;;;;5033211;28;20207;-49
2022/07/20 05:50:42;;;;;;;4.32;3.35;;;15.60;58.70;;;;;;5016660;28;20696;-46
2022/07/20 05:53:13;;;;;;;4.05;3.30;;;15.60;58.70;;;;;;5033231;28;20207;-48
2022/07/20 05:55:46;;;;;;;5.15;3.55;;;15.60;59.30;;;;;;5033205;28;20196;-49
2022/07/20 05:58:17;;;;;;;4.13;3.00;;;15.60;58.70;;;;;;5033475;28;20219;-50
2022/07/20 06:00:48;;;;;;;3.72;3.00;;;15.60;58.80;;;;;;5034140;28;20224;-47
2022/07/20 06:03:18;;;;;;;4.63;3.17;;;15.60;58.70;;;;;;5033514;28;20204;-47
2022/07/20 06:05:49;;;;;;;3.83;3.22;;;15.60;58.70;;;;;;5033198;28;20200;-46
2022/07/20 06:08:20;;;;;;;4.93;3.53;;;15.60;58.70;;;;;;5033183;28;20752;-47
2022/07/20 06:10:52;;;;;;;3.72;3.00;;;15.60;58.70;;;;;;5032666;28;20220;-52
2022/07/20 06:13:23;;;;;;;4.88;3.30;;;15.60;58.70;;;;;;5033161;28;20203;-47
2022/07/20 06:15:54;;;;;;;4.13;3.45;;;15.60;59.00;;;;;;5033354;28;20199;-47
2022/07/20 06:18:24;;;;;;;4.00;3.50;;;15.60;59.20;;;;;;5033079;28;20200;-49
2022/07/20 06:20:55;;;;;;;4.32;3.28;;;15.60;59.20;;;;;;5031699;28;20216;-47
2022/07/20 06:23:26;;;;;;;4.20;3.28;;;15.60;59.10;;;;;;5032479;28;20196;-50
2022/07/20 06:25:58;;;;;;;5.35;3.58;;;15.60;59.00;;;;;;5032599;28;20192;-49
2022/07/20 06:28:29;;;;;;;4.07;2.92;;;15.60;58.90;;;;;;5032474;28;20207;-51
2022/07/20 06:31:00;;;;;;;3.85;2.88;;;15.60;58.90;;;;;;5032477;28;20559;-53
2022/07/20 06:33:31;;;;;;;4.53;3.20;;;15.60;58.90;;;;;;5032538;28;20204;-48
2022/07/20 06:36:02;;;;;;;5.45;3.15;;;15.60;58.80;;;;;;5032042;28;20192;-48
2022/07/20 06:38:33;;;;;;;3.90;3.45;;;15.60;58.90;;;;;;5032621;28;20196;-49
2022/07/20 06:41:05;;;;;;;4.70;2.97;;;15.60;58.90;;;;;;5032549;28;20380;-49
2022/07/20 06:43:36;;;;;;;3.42;2.97;;;15.60;58.90;;;;;;5032226;28;20200;-49
2022/07/20 06:46:07;;;;;;;4.22;3.25;;;15.60;58.90;;;;;;5031529;28;20204;-50
2022/07/20 06:48:40;;;;;;;3.63;2.65;;;15.50;58.80;;;;;;5032002;28;20196;-52
2022/07/20 06:51:11;;;;;;;5.32;3.05;;;15.50;58.80;;;;;;5032166;28;20255;-48
2022/07/20 06:53:41;;;;;;;3.92;2.95;;;15.50;58.80;;;;;;5031985;28;20199;-46
2022/07/20 06:56:14;;;;;;;3.35;2.90;;;15.50;58.80;;;;;;5031760;28;20200;-49
2022/07/20 06:58:45;;;;;;;4.60;3.13;;;15.50;58.70;;;;;;5031861;28;20197;-54
2022/07/20 07:01:15;;;;;;;5.35;3.13;;;15.50;58.70;;;;;;5032721;28;20216;-59
2022/07/20 07:03:46;;;;;;;3.20;2.78;;;15.50;58.70;;;;;;5032365;28;20196;-47
2022/07/20 07:06:17;;;;;;;4.20;3.45;;;15.50;59.00;;;;;;5032345;28;20192;-46
2022/07/20 07:08:47;;;;;;;3.75;3.08;;;15.50;58.70;;;;;;5032106;28;20196;-48
2022/07/20 07:11:20;;;;;;;3.30;3.00;;;15.40;58.70;;;;;;5031716;28;20220;-47
2022/07/20 07:13:50;;;;;;;5.30;3.00;;;15.40;58.70;;;;;;5032133;28;20569;-46
2022/07/20 07:16:21;;;;;;;3.70;2.75;;;15.50;58.70;;;;;;5032246;28;20224;-46
2022/07/20 07:18:52;;;;;;;3.65;3.03;;;15.40;58.70;;;;;;5032007;28;20200;-46
2022/07/20 07:21:23;;;;;;;4.40;3.15;;;15.40;58.70;;;;;;5031674;28;20223;-46
2022/07/20 07:23:53;;;;;;;4.70;3.17;;;15.40;58.70;;;;;;5031938;28;20667;-48
2022/07/20 07:26:26;;;;;;;4.13;2.90;;;15.40;58.70;;;;;;5032144;28;20215;-48
2022/07/20 07:28:57;;;;;;;3.65;2.88;;;15.40;58.70;;;;;;5031951;28;20207;-49
2022/07/20 07:31:27;;;;;;;4.55;3.28;;;15.30;58.70;;;;;;5031884;28;20576;-47
2022/07/20 07:33:58;;;;;;;3.30;3.00;;;15.30;58.60;;;;;;5021163;28;20207;-48
2022/07/20 07:36:29;;;;;;;5.53;3.15;;;15.40;58.70;;;;;;5021845;28;20216;-46
2022/07/20 07:38:59;;;;;;;3.55;3.25;;;15.30;58.70;;;;;;5031357;28;20203;-46
2022/07/20 07:41:32;;;;;;;2.97;2.70;;;15.30;58.60;;;;;;5030890;28;20223;-48
2022/07/20 07:44:03;;;;;;;3.97;3.13;;;15.30;58.70;;;;;;5031171;28;20196;-48
2022/07/20 07:46:33;;;;;;;3.22;2.67;;;15.30;58.70;;;;;;5031769;28;20200;-46
2022/07/20 07:49:04;;;;;;;4.03;3.50;;;15.30;58.70;;;;;;5030518;28;20192;-47
2022/07/20 07:51:35;;;;;;;3.65;3.08;;;15.30;58.70;;;;;;5030724;28;20216;-47
2022/07/20 07:54:06;;;;;;;2.95;2.60;;;15.30;58.70;;;;;;5014809;28;20659;-48
2022/07/20 07:56:38;;;;;;;3.05;2.72;;;15.30;58.70;;;;;;5011650;28;20224;-47
2022/07/20 07:59:09;;;;;;;4.97;2.92;;;15.30;58.70;;;;;;5011840;28;20192;-46
2022/07/20 08:01:40;;;;;;;2.72;2.50;;;15.30;58.70;;;;;;5012006;28;20213;-45
2022/07/20 08:04:10;;;;;;;3.45;2.92;;;15.30;58.70;;;;;;5011816;28;20204;-47
2022/07/20 08:06:41;;;;;;;3.50;2.75;;;15.20;58.60;;;;;;5016111;28;20196;-45
2022/07/20 08:09:12;;;;;;;3.75;3.10;;;15.30;58.70;;;;;;5030947;28;20192;-47
2022/07/20 08:11:44;;;;;;;4.35;3.13;;;15.30;58.70;;;;;;5030246;28;20216;-51
2022/07/20 08:14:15;;;;;;;3.35;2.60;;;15.30;58.70;;;;;;5030375;28;20200;-46
2022/07/20 08:16:46;;;;;;;3.40;2.90;;;15.30;58.70;;;;;;5030617;28;20224;-47
2022/07/20 08:19:16;;;;;;;3.28;2.80;;;15.20;58.70;;;;;;5031257;28;20544;-50
2022/07/20 08:21:47;;;;;;;2.72;2.53;;;15.20;58.80;;;;;;5030497;28;20212;-47
2022/07/20 08:24:18;;;;;;;3.15;2.70;;;15.20;58.80;;;;;;5031104;28;20196;-50
2022/07/20 08:26:50;;;;;;;3.70;2.88;;;15.20;58.80;;;;;;5030945;28;20204;-47
2022/07/20 08:29:21;;;;;;;3.30;2.60;;;15.20;58.80;;;;;;5030731;28;20196;-48
2022/07/20 08:31:52;;;;;;;3.45;2.58;;;15.20;58.90;;;;;;5030417;28;20218;-49
2022/07/20 08:34:22;;;;;;;3.55;2.33;;;15.20;58.80;;;;;;5031017;28;20196;-46
2022/07/20 08:36:53;;;;;;;3.22;2.65;;;15.20;58.90;;;;;;5014405;28;20685;-53
2022/07/20 08:39:25;;;;;;;3.13;2.83;;;15.20;58.80;;;;;;5018141;28;20203;-51
2022/07/20 08:41:57;;;;;;;2.75;2.55;;;15.20;58.80;;;;;;5030709;28;20828;-57
2022/07/20 08:44:28;;;;;;;3.22;2.75;;;15.20;58.80;;;;;;5029926;28;20207;-52
2022/07/20 08:46:59;;;;;;;3.80;2.90;;;15.20;58.80;;;;;;5029376;28;20203;-51
2022/07/20 08:49:30;;;;;;;3.40;2.75;;;15.20;58.80;;;;;;5029393;28;20200;-49
2022/07/20 08:52:01;;;;;;;3.20;2.72;;;15.10;58.80;;;;;;5029783;28;20574;-52
2022/07/20 08:54:33;;;;;;;2.75;2.28;;;15.10;58.80;;;;;;5023113;28;20207;-56
2022/07/20 08:57:14;;;;;;;2.83;2.17;;;15.10;58.80;;;;;;5028981;28;20223;-55
2022/07/20 08:59:45;;;;;;;3.35;2.45;;;15.10;58.90;;;;;;5030158;28;20216;-54
2022/07/20 09:02:19;;;;;;;4.30;2.58;;;15.20;58.90;;;;;;5033259;28;20568;-56
2022/07/20 09:04:57;;;;;;;2.83;2.47;;;15.10;58.90;;;;;;5032456;28;20203;-47
2022/07/20 09:07:42;;;;;;;2.67;2.15;;;15.20;58.90;;;;;;5032099;28;20570;-49
2022/07/20 09:10:14;;;;;;;3.38;2.50;;;15.10;58.80;;;;;;5032981;28;20220;-51
2022/07/20 09:12:58;;;;;;;2.40;2.20;;;15.10;58.90;;;;;;5032756;28;20211;-46
2022/07/20 09:15:35;;;;;;;2.13;1.92;;;15.10;59.20;;;;;;5032194;28;20200;-45
2022/07/20 09:18:18;;;;;;;3.38;2.42;;;15.10;59.10;;;;;;5031987;28;20227;-50
2022/07/20 09:20:50;;;;;;;3.95;2.58;;;15.10;59.00;;;;;;5031897;28;20250;-54
2022/07/20 09:23:22;;;;;;;2.58;2.22;;;15.10;59.00;;;;;;5033507;28;20204;-46
2022/07/20 09:25:58;;;;;;;3.90;2.40;;;15.10;59.00;;;;;;5024471;28;20197;-48
2022/07/20 09:28:39;;;;;;;3.00;2.20;;;15.10;59.00;;;;;;5029479;28;20200;-49
2022/07/20 09:31:15;;;;;;;2.58;2.10;;;15.10;59.00;;;;;;5032265;28;20216;-50
2022/07/20 09:34:00;;;;;;;2.53;2.33;;;15.10;59.00;;;;;;5031778;28;20211;-52
2022/07/20 09:36:32;;;;;;;3.38;2.42;;;15.10;59.00;;;;;;5030152;28;20204;-54
2022/07/20 09:39:12;;;;;;;2.88;2.35;;;15.10;59.00;;;;;;5031286;28;20238;-57
2022/07/20 09:41:43;;;;;;;2.42;2.20;;;15.10;59.00;;;;;;5031440;28;20282;-58
2022/07/20 09:44:24;;;;;;;2.40;1.92;;;15.10;59.00;;;;;;5029865;28;20203;-58
2022/07/20 09:46:55;;;;;;;2.67;1.83;;;15.10;59.00;;;;;;5024405;28;20211;-46
2022/07/20 09:49:34;;;;;;;2.78;2.10;;;15.00;59.00;;;;;;5031710;28;20211;-47
2022/07/20 09:52:06;;;;;;;2.20;2.00;;;15.00;58.90;;;;;;5032217;28;20238;-57
2022/07/20 09:54:37;;;;;;;2.83;2.10;;;15.00;58.90;;;;;;5031872;28;20204;-50
2022/07/20 09:57:09;;;;;;;2.83;2.05;;;15.00;58.90;;;;;;5031644;28;20261;-54
2022/07/20 09:59:50;;;;;;;2.55;2.33;;;15.00;59.00;;;;;;5031020;28;20573;-58
2022/07/20 10:02:22;;;;;;;2.47;2.17;;;15.00;59.00;;;;;;5031938;28;20231;-58
2022/07/20 10:04:53;;;;;;;2.10;1.90;;;15.00;58.90;;;;;;5024389;28;20914;-58
2022/07/20 10:07:24;;;;;;;2.15;1.77;;;15.00;58.90;;;;;;5033009;28;20216;-53
2022/07/20 10:09:55;;;;;;;1.60;1.50;;;15.00;58.90;;;;;;5024606;28;20220;-47
2022/07/20 10:12:26;;;;;;;3.13;2.25;;;15.00;59.00;;;;;;5030882;28;20204;-57
2022/07/20 10:15:02;;;;;;;2.85;1.90;;;15.00;58.90;;;;;;5031538;28;20741;-51
2022/07/20 10:17:36;;;;;;;2.55;2.10;;;15.00;59.00;;;;;;5031180;28;20219;-52
2022/07/20 10:20:09;;;;;;;1.95;1.75;;;15.00;59.00;;;;;;5031204;28;20251;-50
2022/07/20 10:22:40;;;;;;;1.80;1.70;;;15.00;58.90;;;;;;5030398;28;20203;-46
2022/07/20 10:25:20;;;;;;;2.35;1.85;;;15.00;59.00;;;;;;5030906;28;20204;-53
2022/07/20 10:27:51;;;;;;;2.70;2.20;;;15.00;58.90;;;;;;5021150;28;20203;-45
2022/07/20 10:30:24;;;;;;;4.20;1.90;;;14.90;58.90;;;;;;5030019;28;20207;-47
2022/07/20 10:32:56;;;;;;;2.00;1.80;;;15.00;58.90;;;;;;5023233;28;20207;-52
2022/07/20 10:35:31;;;;;;;2.53;2.10;;;14.90;58.90;;;;;;5031880;28;20605;-48
2022/07/20 10:38:02;;;;;;;2.15;1.90;;;14.90;59.00;;;;;;5031279;28;20648;-46
2022/07/20 10:41:31;;;;;;;2.47;2.05;;;14.90;58.90;;;;;;5030384;28;20220;-49
2022/07/20 10:43:23;;;;;;;1.95;1.80;;;14.90;59.00;;;;;;5030814;28;20277;-54
2022/07/20 10:45:56;;;;;;;2.00;1.80;;;14.90;59.00;;;;;;5030880;28;20201;-54
2022/07/20 10:48:27;;;;;;;1.73;1.60;;;14.90;59.00;;;;;;5030534;28;20282;-48
2022/07/20 10:50:58;;;;;;;1.90;1.77;;;14.90;59.00;;;;;;5030978;28;20216;-59
2022/07/20 10:53:38;;;;;;;2.28;1.98;;;14.90;58.90;;;;;;5031006;28;20204;-48
2022/07/20 10:56:09;;;;;;;2.15;1.90;;;14.90;59.00;;;;;;5030678;28;20196;-52
2022/07/20 10:58:43;;;;;;;1.60;1.50;;;14.90;59.00;;;;;;5030495;28;20232;-54
2022/07/20 11:01:16;;;;;;;2.10;1.83;;;14.90;58.90;;;;;;5031741;28;20228;-47
2022/07/20 11:03:48;;;;;;;1.95;1.65;;;14.90;59.00;;;;;;5032612;28;20200;-48
2022/07/20 11:06:20;;;;;;;1.65;1.48;;;14.80;58.90;;;;;;5031988;28;20239;-45
2022/07/20 11:08:54;;;;;;;2.00;1.80;;;14.80;59.50;;;;;;5031045;28;20232;-46
2022/07/20 11:11:26;;;;;;;1.77;1.63;;;14.90;59.00;;;;;;5030505;28;20212;-46
2022/07/20 11:13:57;;;;;;;1.63;1.52;;;14.80;59.00;;;;;;5031099;28;20196;-48
2022/07/20 11:16:31;;;;;;;2.47;1.88;;;14.80;59.00;;;;;;5030197;28;20192;-47
2022/07/20 11:19:03;;;;;;;1.92;1.50;;;14.80;59.00;;;;;;5030347;28;20219;-49
2022/07/20 11:21:35;;;;;;;2.83;1.60;;;14.80;59.00;;;;;;5026546;28;20220;-47
2022/07/20 11:24:07;;;;;;;2.95;1.70;;;14.90;59.00;;;;;;5011632;28;20201;-45
2022/07/20 11:26:37;;;;;;;2.65;1.73;;;14.80;59.00;;;;;;5010025;28;20197;-45
2022/07/20 11:29:14;;;;;;;2.95;1.75;;;14.80;59.00;;;;;;5010760;28;20200;-46
2022/07/20 11:31:46;;;;;;;2.22;1.75;;;14.80;59.00;;;;;;5023055;28;20211;-45
2022/07/20 11:34:17;;;;;;;2.58;1.50;;;14.80;59.00;;;;;;5029789;28;20204;-46
2022/07/20 11:36:49;;;;;;;2.90;1.67;;;14.80;59.00;;;;;;5026763;28;20184;-45
2022/07/20 11:39:23;;;;;;;1.70;1.40;;;14.80;59.00;;;;;;5010283;28;20591;-45
2022/07/20 11:41:54;;;;;;;3.35;1.73;;;14.80;59.00;;;;;;5010473;28;20196;-45
2022/07/20 11:44:27;;;;;;;2.63;1.90;;;14.80;59.00;;;;;;5010317;28;20205;-46
2022/07/20 11:46:59;;;;;;;3.50;2.10;;;14.80;59.00;;;;;;5023124;28;20200;-48
2022/07/20 11:49:31;;;;;;;3.00;2.00;;;14.80;59.00;;;;;;5030212;28;20204;-45
2022/07/20 11:52:05;;;;;;;5.63;2.50;;;14.80;59.00;;;;;;5030165;28;20664;-46
2022/07/20 11:54:37;;;;;;;2.28;1.80;;;14.70;59.00;;;;;;5030061;28;20205;-45
2022/07/20 11:57:09;;;;;;;3.47;1.92;;;14.70;58.90;;;;;;5029297;28;20196;-49
2022/07/20 11:59:51;;;;;;;3.17;2.08;;;14.70;58.90;;;;;;5029718;28;20227;-50
2022/07/20 12:02:25;;;;;;;2.50;2.00;;;14.70;58.90;;;;;;5029468;28;20200;-45
2022/07/20 12:04:56;;;;;;;5.05;2.08;;;14.70;58.90;;;;;;5030015;28;20200;-45
2022/07/20 12:10:26;;;;;;;4.20;2.38;;;14.70;58.90;;;;;;5009514;28;20587;-47
2022/07/20 12:13:05;;;;;;;2.90;2.03;;;14.70;58.90;;;;;;5009741;28;20196;-48
2022/07/20 12:15:36;;;;;;;4.75;2.13;;;14.70;59.00;;;;;;5010336;28;20219;-46
2022/07/20 12:18:08;;;;;;;4.65;2.42;;;14.70;59.00;;;;;;5030321;28;20216;-45
2022/07/20 12:20:39;;;;;;;3.70;2.20;;;14.70;59.00;;;;;;5029976;28;20235;-45
2022/07/20 12:23:09;;;;;;;3.92;2.25;;;14.70;59.00;;;;;;5030044;28;20262;-48
2022/07/20 12:25:43;;;;;;;4.57;2.30;;;14.70;59.00;;;;;;5029737;28;20207;-45
2022/07/20 12:28:13;;;;;;;3.22;1.95;;;14.70;59.10;;;;;;5029568;28;20680;-46
2022/07/20 12:30:45;;;;;;;4.25;1.92;;;14.70;59.00;;;;;;5029590;28;20220;-45
2022/07/20 12:33:18;;;;;;;3.60;2.33;;;14.60;58.90;;;;;;5029690;28;20196;-49
2022/07/20 12:35:49;;;;;;;3.83;2.40;;;14.60;59.00;;;;;;5028258;28;20192;-45
2022/07/20 12:38:21;;;;;;;4.55;2.30;;;14.60;58.90;;;;;;5028823;28;20254;-45
2022/07/20 12:40:52;;;;;;;4.63;2.42;;;14.60;59.00;;;;;;5029647;28;20384;-49
2022/07/20 12:43:34;;;;;;;3.90;2.25;;;14.70;59.00;;;;;;5029037;28;20200;-47
2022/07/20 12:46:07;;;;;;;3.97;2.15;;;14.60;59.00;;;;;;5028821;28;20224;-46
2022/07/20 12:48:41;;;;;;;3.83;2.28;;;14.60;59.00;;;;;;5029230;28;20196;-47
2022/07/20 12:51:13;;;;;;;5.00;2.17;;;14.60;59.00;;;;;;5029131;28;20298;-47
2022/07/20 12:53:44;;;;;;;3.65;2.40;;;14.60;59.00;;;;;;5029642;28;20647;-48
2022/07/20 12:56:16;;;;;;;4.35;2.55;;;14.60;59.00;;;;;;5029588;28;20230;-47
2022/07/20 12:58:47;;;;;;;6.97;2.20;;;14.60;59.00;;;;;;5029528;28;20590;-49
2022/07/20 13:01:18;;;;;;;3.33;1.92;;;14.60;59.00;;;;;;5028837;28;20212;-47
2022/07/20 13:03:50;;;;;;;4.07;2.10;;;14.60;59.00;;;;;;5028931;28;20286;-45
2022/07/20 13:06:21;;;;;;;3.55;1.83;;;14.60;59.00;;;;;;5028913;28;20207;-47
2022/07/20 13:08:52;;;;;;;4.63;2.10;;;14.60;59.00;;;;;;5029130;28;20192;-45
2022/07/20 13:11:22;;;;;;;3.25;2.03;;;14.60;59.00;;;;;;5029384;28;20220;-48
2022/07/20 13:13:53;;;;;;;3.05;1.88;;;14.60;59.00;;;;;;5029454;28;20196;-49
2022/07/20 13:16:24;;;;;;;3.75;2.13;;;14.60;59.00;;;;;;5028321;28;20207;-45
2022/07/20 13:18:57;;;;;;;5.80;2.35;;;14.50;59.00;;;;;;5028545;28;20250;-45
2022/07/20 13:21:27;;;;;;;5.18;1.95;;;14.50;59.00;;;;;;5028800;28;20700;-47